Time;durP1;ratioP1;P1;durP2;ratioP2;P2;SDS_P1;SDS_P2;PMS_P1;PMS_P2;Temp;Humidity;BMP_temperature;BMP_pressure;BME280_temperature;BME280_humidity;BME280_pressure;Samples;Min_cycle;Max_cycle;Signal;HPM_P1;HPM_P2
2023/08/29 00:00:00;;;;;;;3.27;2.97;;;17.40;99.90;;;;;;4953490;29;20177;-71
2023/08/29 00:02:31;;;;;;;2.80;2.07;;;17.30;99.90;;;;;;4953953;28;20187;-71
2023/08/29 00:04:57;;;;;;;2.83;2.50;;;17.30;99.90;;;;;;4958109;28;20494;-72
2023/08/29 00:07:23;;;;;;;3.77;2.60;;;17.30;99.90;;;;;;4958688;28;20441;-73
2023/08/29 00:09:48;;;;;;;4.63;2.77;;;17.30;99.90;;;;;;4947073;29;20908;-73
2023/08/29 00:12:14;;;;;;;2.80;2.50;;;17.20;99.90;;;;;;4948352;29;20179;-71
2023/08/29 00:14:40;;;;;;;2.93;2.20;;;17.20;99.90;;;;;;4946423;28;20272;-71
2023/08/29 00:17:06;;;;;;;3.13;2.87;;;17.20;99.90;;;;;;4966568;28;20234;-72
2023/08/29 00:19:32;;;;;;;3.37;2.93;;;17.10;99.90;;;;;;4947597;29;20504;-71
2023/08/29 00:21:58;;;;;;;6.87;2.93;;;17.10;99.90;;;;;;4962554;23;20979;-71
2023/08/29 00:24:24;;;;;;;3.60;2.77;;;17.00;99.90;;;;;;4952636;28;20515;-71
2023/08/29 00:26:50;;;;;;;3.10;2.90;;;17.00;99.90;;;;;;4951439;28;20955;-71
2023/08/29 00:29:16;;;;;;;3.90;3.20;;;17.00;99.90;;;;;;4951959;29;20419;-71
2023/08/29 00:31:41;;;;;;;3.77;3.33;;;16.90;99.90;;;;;;4951924;28;20520;-72
2023/08/29 00:34:07;;;;;;;3.63;2.80;;;16.90;99.90;;;;;;4950889;28;20592;-70
2023/08/29 00:36:33;;;;;;;3.30;3.00;;;16.90;99.90;;;;;;4950378;28;20207;-71
2023/08/29 00:38:58;;;;;;;6.80;3.73;;;16.80;99.90;;;;;;4953201;28;20182;-71
2023/08/29 00:41:24;;;;;;;4.70;3.40;;;16.80;99.90;;;;;;4951737;28;20197;-71
2023/08/29 00:43:49;;;;;;;5.60;4.00;;;16.80;99.90;;;;;;4950237;28;20616;-71
2023/08/29 00:46:15;;;;;;;3.87;3.53;;;16.80;99.90;;;;;;4952323;28;20205;-71
2023/08/29 00:48:42;;;;;;;4.30;3.50;;;16.80;99.90;;;;;;4951592;28;20289;-71
2023/08/29 00:51:08;;;;;;;10.60;3.63;;;16.70;99.90;;;;;;4955777;29;20453;-72
2023/08/29 00:53:35;;;;;;;5.80;4.67;;;16.80;99.90;;;;;;4955079;28;20417;-71
2023/08/29 00:56:01;;;;;;;3.67;3.37;;;16.80;99.90;;;;;;4955109;28;20413;-70
2023/08/29 00:58:28;;;;;;;6.00;3.67;;;16.70;99.90;;;;;;4953503;28;20439;-71
2023/08/29 01:00:54;;;;;;;7.67;3.77;;;16.70;99.90;;;;;;4964074;28;20488;-71
2023/08/29 01:03:19;;;;;;;6.10;3.40;;;16.60;99.90;;;;;;4974201;28;20846;-70
2023/08/29 01:05:45;;;;;;;5.87;4.73;;;16.60;99.90;;;;;;4974295;28;20499;-71
2023/08/29 01:08:11;;;;;;;4.50;3.73;;;16.60;99.90;;;;;;4965585;28;20177;-72
2023/08/29 01:11:06;;;;;;;6.13;3.90;;;16.60;99.90;;;;;;4953413;28;20510;-71
2023/08/29 01:13:51;;;;;;;4.87;3.13;;;16.60;99.90;;;;;;4951579;29;20192;-71
2023/08/29 01:16:21;;;;;;;3.63;3.33;;;16.50;99.90;;;;;;4958314;28;20535;-71
2023/08/29 01:18:47;;;;;;;4.90;4.30;;;16.50;99.90;;;;;;4946577;28;20415;-71
2023/08/29 01:21:39;;;;;;;4.13;3.73;;;16.50;99.90;;;;;;4954762;28;20595;-71
2023/08/29 01:24:10;;;;;;;4.37;3.50;;;16.40;99.90;;;;;;4954301;29;20429;-71
2023/08/29 01:26:36;;;;;;;4.30;3.90;;;16.40;99.90;;;;;;4954650;28;20519;-71
2023/08/29 01:29:03;;;;;;;3.13;2.83;;;16.40;99.90;;;;;;4966100;28;20637;-71
2023/08/29 01:31:31;;;;;;;4.40;3.93;;;16.30;99.90;;;;;;4954024;28;20459;-71
2023/08/29 01:34:00;;;;;;;4.10;3.70;;;16.30;99.90;;;;;;4954498;28;20413;-71
2023/08/29 01:36:39;;;;;;;5.30;4.57;;;16.30;99.90;;;;;;4954058;28;20456;-70
2023/08/29 01:39:04;;;;;;;3.70;3.40;;;16.30;99.90;;;;;;4942426;28;20504;-71
2023/08/29 01:41:30;;;;;;;4.17;3.77;;;16.30;99.90;;;;;;4953818;28;20929;-71
2023/08/29 01:43:55;;;;;;;7.33;3.73;;;16.30;99.90;;;;;;4950832;28;20204;-71
2023/08/29 01:46:21;;;;;;;4.60;4.20;;;16.20;99.90;;;;;;4953048;28;20212;-71
2023/08/29 01:48:47;;;;;;;5.17;3.53;;;16.20;99.90;;;;;;4952239;28;20168;-71
2023/08/29 01:51:13;;;;;;;3.57;3.27;;;16.20;99.90;;;;;;4953225;28;20641;-71
2023/08/29 01:53:39;;;;;;;4.13;3.20;;;16.10;99.90;;;;;;4953932;28;20417;-71
2023/08/29 01:56:07;;;;;;;3.17;2.87;;;16.10;99.90;;;;;;4956180;28;20763;-72
2023/08/29 01:58:35;;;;;;;7.13;3.50;;;16.10;99.90;;;;;;4973833;28;20204;-72
2023/08/29 02:01:01;;;;;;;3.40;3.10;;;16.10;99.90;;;;;;4969549;28;20444;-72
2023/08/29 02:03:28;;;;;;;5.13;3.83;;;16.10;99.90;;;;;;4954416;28;20964;-71
2023/08/29 02:05:53;;;;;;;2.93;2.47;;;16.10;99.90;;;;;;4953854;28;20455;-72
2023/08/29 02:08:19;;;;;;;2.47;2.27;;;16.10;99.90;;;;;;4957827;28;20437;-72
2023/08/29 02:10:44;;;;;;;3.37;2.83;;;16.10;99.90;;;;;;4972237;28;20204;-72
2023/08/29 02:13:10;;;;;;;4.07;2.93;;;16.10;99.90;;;;;;4951779;28;20641;-72
2023/08/29 02:15:36;;;;;;;4.80;3.43;;;16.10;99.90;;;;;;4954404;28;20186;-72
2023/08/29 02:18:02;;;;;;;5.23;2.53;;;16.00;99.90;;;;;;4953703;28;20175;-72
2023/08/29 02:20:28;;;;;;;3.10;2.80;;;16.00;99.90;;;;;;4953571;28;20688;-72
2023/08/29 02:22:53;;;;;;;4.73;2.73;;;16.00;99.90;;;;;;4953736;28;20507;-72
2023/08/29 02:25:19;;;;;;;3.33;3.00;;;16.00;99.90;;;;;;4953823;28;20347;-72
2023/08/29 02:27:44;;;;;;;4.23;2.83;;;15.90;99.90;;;;;;4954120;28;20655;-72
2023/08/29 02:30:10;;;;;;;3.00;2.67;;;15.90;99.90;;;;;;4952469;28;20174;-72
2023/08/29 02:32:38;;;;;;;2.73;2.53;;;15.90;99.90;;;;;;4954127;28;20173;-71
2023/08/29 02:35:04;;;;;;;4.40;2.70;;;15.90;99.90;;;;;;4953294;28;20176;-72
2023/08/29 02:37:30;;;;;;;4.10;2.57;;;15.90;99.90;;;;;;4952013;28;20934;-71
2023/08/29 02:39:55;;;;;;;4.23;2.40;;;15.90;99.90;;;;;;4953311;28;20414;-72
2023/08/29 02:42:21;;;;;;;4.47;2.27;;;15.80;99.90;;;;;;4953500;28;20905;-71
2023/08/29 02:44:46;;;;;;;2.10;1.90;;;15.80;99.90;;;;;;4956727;28;20670;-71
2023/08/29 02:47:12;;;;;;;2.00;1.90;;;15.80;99.90;;;;;;4956622;28;20206;-72
2023/08/29 02:49:37;;;;;;;2.70;2.50;;;15.80;99.90;;;;;;4953188;28;20295;-72
2023/08/29 02:52:03;;;;;;;2.50;2.30;;;15.80;99.90;;;;;;4953144;28;20196;-72
2023/08/29 02:54:29;;;;;;;2.47;2.27;;;15.80;99.90;;;;;;4953659;28;20171;-72
2023/08/29 02:56:54;;;;;;;2.23;2.03;;;15.70;99.90;;;;;;4953126;28;20182;-72
2023/08/29 02:59:20;;;;;;;2.50;2.30;;;15.70;99.90;;;;;;4952962;28;20278;-71
2023/08/29 03:01:46;;;;;;;3.10;2.23;;;15.70;99.90;;;;;;4951489;28;20583;-71
2023/08/29 03:04:11;;;;;;;5.43;2.67;;;15.70;99.90;;;;;;4953027;28;20258;-71
2023/08/29 03:06:37;;;;;;;3.10;1.90;;;15.70;99.90;;;;;;4952918;28;20667;-72
2023/08/29 03:09:03;;;;;;;3.13;2.10;;;15.70;99.90;;;;;;4952630;28;20173;-71
2023/08/29 03:11:29;;;;;;;3.33;2.17;;;15.70;99.90;;;;;;4952793;28;20199;-71
2023/08/29 03:13:54;;;;;;;2.80;2.00;;;15.60;99.90;;;;;;4952821;28;20923;-72
2023/08/29 03:16:20;;;;;;;2.43;2.23;;;15.60;99.90;;;;;;4952749;28;20168;-72
2023/08/29 03:18:46;;;;;;;1.80;1.70;;;15.60;99.90;;;;;;4951159;28;20653;-72
2023/08/29 03:21:11;;;;;;;1.83;1.73;;;15.60;99.90;;;;;;4952800;28;20612;-71
2023/08/29 03:23:37;;;;;;;3.60;2.03;;;15.60;99.90;;;;;;4953116;28;20183;-71
2023/08/29 03:26:07;;;;;;;2.23;2.03;;;15.50;99.90;;;;;;4952664;28;20291;-71
2023/08/29 03:28:34;;;;;;;2.17;1.73;;;15.50;99.90;;;;;;4952641;28;20172;-73
2023/08/29 03:31:13;;;;;;;1.93;1.70;;;15.50;99.90;;;;;;4952620;28;20794;-72
2023/08/29 03:33:39;;;;;;;2.83;2.37;;;15.40;99.90;;;;;;4952783;28;20418;-72
2023/08/29 03:36:05;;;;;;;5.90;1.60;;;15.40;99.90;;;;;;4951067;28;20574;-72
2023/08/29 03:38:33;;;;;;;3.27;2.10;;;15.40;99.90;;;;;;4952636;28;20412;-72
2023/08/29 03:40:59;;;;;;;2.20;2.00;;;15.40;99.90;;;;;;4952684;28;20802;-72
2023/08/29 03:43:28;;;;;;;2.97;1.80;;;15.40;99.90;;;;;;4952623;28;20441;-72
2023/08/29 03:46:21;;;;;;;1.83;1.73;;;15.40;99.90;;;;;;4964683;28;20199;-72
2023/08/29 03:48:46;;;;;;;2.33;2.13;;;15.30;99.90;;;;;;4971474;28;20424;-72
2023/08/29 03:51:12;;;;;;;1.73;1.63;;;15.30;99.90;;;;;;4971679;28;20506;-72
2023/08/29 03:53:38;;;;;;;2.00;1.80;;;15.20;99.90;;;;;;4961966;28;20179;-71
2023/08/29 03:56:05;;;;;;;2.07;1.90;;;15.20;99.90;;;;;;4952485;28;20234;-72
2023/08/29 03:58:31;;;;;;;2.70;2.33;;;15.30;99.90;;;;;;4952107;28;20412;-72
2023/08/29 04:00:58;;;;;;;2.37;2.13;;;15.20;99.90;;;;;;4952410;28;20505;-72
2023/08/29 04:03:24;;;;;;;3.53;1.87;;;15.20;99.90;;;;;;4952176;28;20438;-72
2023/08/29 04:05:49;;;;;;;2.33;2.00;;;15.10;99.90;;;;;;4952310;28;20514;-72
2023/08/29 04:08:15;;;;;;;2.80;2.60;;;15.20;99.90;;;;;;4943490;28;20425;-72
2023/08/29 04:10:41;;;;;;;2.23;2.03;;;15.10;99.90;;;;;;4940992;28;20222;-72
2023/08/29 04:13:07;;;;;;;2.30;2.20;;;15.10;99.90;;;;;;4949947;28;20248;-72
2023/08/29 04:15:36;;;;;;;4.47;2.47;;;15.10;99.90;;;;;;4954173;28;20425;-72
2023/08/29 04:18:03;;;;;;;2.30;2.10;;;15.10;99.90;;;;;;4951980;28;20947;-72
2023/08/29 04:20:30;;;;;;;2.40;2.20;;;15.10;99.90;;;;;;4947169;28;20451;-72
2023/08/29 04:22:57;;;;;;;3.90;2.47;;;15.00;99.90;;;;;;4950201;28;20469;-72
2023/08/29 04:25:26;;;;;;;3.33;1.80;;;15.00;99.90;;;;;;4953910;28;20454;-72
2023/08/29 04:27:55;;;;;;;4.23;2.30;;;15.00;99.90;;;;;;4955213;28;20456;-72
2023/08/29 04:30:21;;;;;;;3.83;1.80;;;15.00;99.90;;;;;;4956126;28;20466;-72
2023/08/29 04:32:48;;;;;;;2.57;1.70;;;15.00;99.90;;;;;;4957436;28;20899;-72
2023/08/29 04:35:14;;;;;;;6.37;2.10;;;15.00;99.90;;;;;;4954466;28;20776;-72
2023/08/29 04:37:39;;;;;;;2.50;2.30;;;15.00;99.90;;;;;;4952618;28;20411;-72
2023/08/29 04:40:06;;;;;;;3.27;2.00;;;15.00;99.90;;;;;;4955007;28;20515;-72
2023/08/29 04:42:37;;;;;;;2.93;2.70;;;15.00;99.90;;;;;;4954035;28;20168;-72
2023/08/29 04:45:04;;;;;;;2.90;2.40;;;15.00;99.90;;;;;;4953969;28;20825;-73
2023/08/29 04:47:30;;;;;;;2.23;2.10;;;14.90;99.90;;;;;;4955995;28;20927;-72
2023/08/29 04:49:56;;;;;;;5.30;3.47;;;15.00;99.90;;;;;;4955014;28;20406;-72
2023/08/29 04:52:21;;;;;;;4.40;2.53;;;15.00;99.90;;;;;;4955161;28;20445;-73
2023/08/29 04:54:47;;;;;;;3.67;1.93;;;14.90;99.90;;;;;;4955787;28;20224;-73
2023/08/29 04:57:13;;;;;;;2.00;1.90;;;14.90;99.90;;;;;;4955494;28;20282;-73
2023/08/29 04:59:38;;;;;;;3.13;2.60;;;14.90;99.90;;;;;;4955642;28;20173;-72
2023/08/29 05:02:04;;;;;;;1.93;1.73;;;14.90;99.90;;;;;;4954080;28;20249;-72
2023/08/29 05:04:30;;;;;;;4.30;2.20;;;14.80;99.90;;;;;;4955083;28;20176;-72
2023/08/29 05:06:55;;;;;;;5.00;2.37;;;14.80;99.90;;;;;;4955560;28;20284;-72
2023/08/29 05:09:21;;;;;;;3.00;2.00;;;14.80;99.90;;;;;;4967761;28;20559;-72
2023/08/29 05:11:47;;;;;;;7.10;2.43;;;14.80;99.90;;;;;;4974481;28;20702;-74
2023/08/29 05:14:12;;;;;;;7.60;2.63;;;14.80;99.90;;;;;;4973815;28;20185;-71
2023/08/29 05:16:38;;;;;;;4.23;1.93;;;14.80;99.90;;;;;;4949067;28;20171;-71
2023/08/29 05:19:07;;;;;;;2.10;1.87;;;14.80;99.90;;;;;;4953688;28;20274;-71
2023/08/29 05:21:34;;;;;;;2.77;2.47;;;14.90;99.90;;;;;;4954593;28;20301;-71
2023/08/29 05:24:00;;;;;;;4.80;3.10;;;14.90;99.90;;;;;;4947043;28;20414;-71
2023/08/29 05:26:26;;;;;;;2.20;2.00;;;14.90;99.90;;;;;;4954498;28;20881;-71
2023/08/29 05:28:51;;;;;;;2.20;2.10;;;15.00;99.90;;;;;;4954522;28;20551;-72
2023/08/29 05:31:17;;;;;;;3.03;2.47;;;15.00;99.90;;;;;;4953217;28;20195;-72
2023/08/29 05:33:42;;;;;;;6.50;2.70;;;15.00;99.90;;;;;;4952983;28;20432;-72
2023/08/29 05:36:08;;;;;;;3.30;2.80;;;15.10;99.90;;;;;;4954331;28;20192;-71
2023/08/29 05:38:33;;;;;;;3.50;3.20;;;15.10;99.90;;;;;;4954093;28;20177;-71
2023/08/29 05:40:59;;;;;;;2.50;2.30;;;15.10;99.90;;;;;;4954344;28;20481;-71
2023/08/29 05:43:26;;;;;;;4.40;3.10;;;15.10;99.90;;;;;;4953875;28;20193;-71
2023/08/29 05:45:56;;;;;;;4.20;2.70;;;15.20;99.90;;;;;;4966301;28;20322;-71
2023/08/29 05:48:22;;;;;;;3.60;2.87;;;15.20;99.90;;;;;;4960955;28;20473;-71
2023/08/29 05:50:51;;;;;;;4.47;4.00;;;15.30;99.90;;;;;;4952303;28;20943;-71
2023/08/29 05:53:17;;;;;;;3.47;2.90;;;15.30;99.90;;;;;;4954288;28;20534;-71
2023/08/29 05:55:44;;;;;;;5.30;4.80;;;15.40;99.90;;;;;;4954655;28;20792;-71
2023/08/29 05:58:10;;;;;;;3.20;3.00;;;15.40;99.90;;;;;;4954262;28;20408;-70
2023/08/29 06:00:35;;;;;;;7.47;3.67;;;15.40;99.90;;;;;;4954196;28;20816;-71
2023/08/29 06:03:04;;;;;;;9.87;4.70;;;15.40;99.90;;;;;;4954407;28;20174;-71
2023/08/29 06:05:32;;;;;;;5.70;3.77;;;15.40;99.90;;;;;;4953851;28;20549;-71
2023/08/29 06:08:01;;;;;;;5.10;2.77;;;15.40;99.90;;;;;;4951194;28;20490;-72
2023/08/29 06:10:28;;;;;;;3.37;3.00;;;15.40;99.90;;;;;;4953505;28;20427;-72
2023/08/29 06:12:54;;;;;;;3.23;3.03;;;15.30;99.90;;;;;;4953839;28;20409;-72
2023/08/29 06:15:19;;;;;;;3.20;3.00;;;15.30;99.90;;;;;;4953606;28;20402;-72
2023/08/29 06:17:45;;;;;;;3.00;2.80;;;15.40;99.90;;;;;;4953831;28;20782;-73
2023/08/29 06:20:11;;;;;;;7.93;2.80;;;15.40;99.90;;;;;;4954310;28;20550;-72
2023/08/29 06:22:37;;;;;;;5.07;3.07;;;15.40;99.90;;;;;;4952476;29;20201;-73
2023/08/29 06:25:04;;;;;;;3.23;2.93;;;15.50;99.90;;;;;;4943571;28;20195;-72
2023/08/29 06:27:30;;;;;;;4.63;3.33;;;15.60;99.90;;;;;;4953645;28;20423;-72
2023/08/29 06:29:55;;;;;;;22.43;4.20;;;15.60;99.90;;;;;;4952056;28;20834;-71
2023/08/29 06:32:21;;;;;;;3.40;3.10;;;15.80;99.90;;;;;;4953640;28;20431;-73
2023/08/29 06:34:47;;;;;;;3.77;3.00;;;15.80;99.90;;;;;;4953969;28;20228;-73
2023/08/29 06:37:13;;;;;;;3.27;2.77;;;15.90;99.90;;;;;;4955278;28;20170;-73
2023/08/29 06:39:39;;;;;;;5.03;3.10;;;15.90;99.90;;;;;;4952210;28;20185;-73
2023/08/29 06:42:05;;;;;;;3.93;3.40;;;15.90;99.90;;;;;;4953056;28;20434;-73
2023/08/29 06:44:30;;;;;;;3.73;3.43;;;15.90;99.90;;;;;;4954349;28;20166;-73
2023/08/29 06:46:56;;;;;;;2.97;2.67;;;15.90;99.90;;;;;;4971786;28;20455;-73
2023/08/29 06:49:21;;;;;;;3.63;3.37;;;15.90;99.90;;;;;;4972157;28;20204;-73
2023/08/29 06:51:47;;;;;;;3.60;3.30;;;15.90;99.90;;;;;;4955349;28;20201;-73
2023/08/29 06:54:13;;;;;;;4.57;3.40;;;16.00;99.90;;;;;;4953135;28;20170;-72
2023/08/29 06:56:38;;;;;;;3.70;3.00;;;16.10;99.90;;;;;;4953040;28;20183;-77
2023/08/29 06:59:04;;;;;;;4.07;3.20;;;16.20;99.90;;;;;;4951444;28;20267;-72
2023/08/29 07:01:29;;;;;;;3.93;2.57;;;16.30;99.90;;;;;;4952760;28;20658;-72
2023/08/29 07:03:55;;;;;;;2.53;2.40;;;16.30;99.90;;;;;;4952893;28;20185;-72
2023/08/29 07:06:21;;;;;;;6.33;3.93;;;16.10;99.90;;;;;;4952694;28;20283;-71
2023/08/29 07:08:47;;;;;;;3.20;2.97;;;16.20;99.90;;;;;;4952739;28;20536;-71
2023/08/29 07:11:13;;;;;;;4.13;3.10;;;16.20;99.90;;;;;;4952913;28;20216;-71
2023/08/29 07:13:39;;;;;;;4.27;2.80;;;16.30;99.90;;;;;;4952478;28;20451;-72
2023/08/29 07:16:05;;;;;;;3.20;3.00;;;16.10;99.90;;;;;;4951222;28;20243;-72
2023/08/29 07:18:32;;;;;;;4.13;3.17;;;16.10;99.90;;;;;;4952642;28;20169;-72
2023/08/29 07:20:59;;;;;;;7.77;3.23;;;16.10;99.90;;;;;;4951340;28;20974;-67
2023/08/29 07:23:25;;;;;;;3.20;3.00;;;16.10;99.90;;;;;;4952827;28;20510;-72
2023/08/29 07:25:51;;;;;;;3.97;3.10;;;15.90;99.90;;;;;;4953183;29;20501;-73
2023/08/29 07:28:16;;;;;;;6.37;3.83;;;16.00;99.90;;;;;;4953037;28;20416;-72
2023/08/29 07:30:47;;;;;;;6.03;3.20;;;16.10;99.90;;;;;;4952870;28;20194;-71
2023/08/29 07:33:14;;;;;;;5.03;3.97;;;16.20;99.90;;;;;;4951144;28;20188;-71
2023/08/29 07:35:40;;;;;;;4.80;3.77;;;16.20;99.90;;;;;;4952597;28;20829;-72
2023/08/29 07:38:07;;;;;;;3.13;2.80;;;16.20;99.90;;;;;;4952714;28;20823;-72
2023/08/29 07:40:33;;;;;;;5.53;3.93;;;16.30;99.90;;;;;;4951281;28;20447;-72
2023/08/29 07:43:03;;;;;;;4.23;3.83;;;16.30;99.90;;;;;;4952808;28;20601;-72
2023/08/29 07:45:30;;;;;;;3.60;3.30;;;16.10;99.90;;;;;;4959316;28;20923;-72
2023/08/29 07:47:55;;;;;;;7.27;3.80;;;16.10;99.90;;;;;;4971429;28;20948;-71
2023/08/29 07:50:21;;;;;;;7.00;3.60;;;16.00;99.90;;;;;;4956141;28;20488;-70
2023/08/29 07:52:46;;;;;;;5.50;3.63;;;15.90;99.90;;;;;;4963963;28;20272;-70
2023/08/29 07:55:12;;;;;;;4.00;3.60;;;15.90;99.90;;;;;;4958135;28;20274;-71
2023/08/29 07:57:38;;;;;;;4.10;3.80;;;15.70;99.90;;;;;;4953226;28;20227;-71
2023/08/29 08:00:08;;;;;;;4.53;4.13;;;15.70;99.90;;;;;;4957257;28;20196;-71
2023/08/29 08:02:38;;;;;;;5.73;5.23;;;15.70;99.90;;;;;;4962890;28;20415;-71
2023/08/29 08:05:06;;;;;;;6.87;4.23;;;15.70;99.90;;;;;;4955945;28;20434;-71
2023/08/29 08:07:31;;;;;;;5.63;4.20;;;15.60;99.90;;;;;;4961072;28;20471;-72
2023/08/29 08:09:57;;;;;;;5.40;4.73;;;15.60;99.90;;;;;;4958250;28;20423;-71
2023/08/29 08:12:22;;;;;;;7.13;4.60;;;15.60;99.90;;;;;;4956112;28;20195;-71
2023/08/29 08:14:48;;;;;;;6.10;5.40;;;15.60;99.90;;;;;;4955312;28;20254;-70
2023/08/29 08:17:14;;;;;;;6.93;5.63;;;15.60;99.90;;;;;;4947716;28;20659;-70
2023/08/29 08:19:39;;;;;;;5.40;4.90;;;15.80;99.90;;;;;;4955922;28;20589;-72
2023/08/29 08:22:07;;;;;;;7.43;5.10;;;16.00;99.90;;;;;;4959464;28;21008;-72
2023/08/29 08:24:32;;;;;;;6.33;5.50;;;16.10;99.90;;;;;;4959849;28;20170;-72
2023/08/29 08:26:58;;;;;;;5.83;5.30;;;16.20;99.90;;;;;;4956138;28;20517;-72
2023/08/29 08:29:23;;;;;;;5.60;5.10;;;16.10;99.90;;;;;;4954805;28;20192;-71
2023/08/29 08:31:49;;;;;;;6.63;5.20;;;16.10;99.90;;;;;;4963142;28;20312;-71
2023/08/29 08:34:15;;;;;;;7.43;5.20;;;16.20;99.90;;;;;;4954363;28;20185;-71
2023/08/29 08:36:40;;;;;;;5.40;4.73;;;16.30;99.90;;;;;;4957246;28;20643;-71
2023/08/29 08:39:06;;;;;;;5.10;4.10;;;16.30;99.90;;;;;;4954267;28;20181;-71
2023/08/29 08:41:32;;;;;;;6.30;4.70;;;16.20;99.90;;;;;;4982408;23;20562;-69
2023/08/29 08:44:03;;;;;;;5.20;4.70;;;16.00;99.90;;;;;;4974833;28;20272;-69
2023/08/29 08:46:30;;;;;;;4.97;4.47;;;16.00;99.90;;;;;;4973133;28;20949;-67
2023/08/29 08:48:56;;;;;;;5.53;5.03;;;16.20;99.90;;;;;;4972408;28;20802;-67
2023/08/29 08:51:24;;;;;;;5.60;5.20;;;16.10;99.90;;;;;;4970760;28;20486;-68
2023/08/29 08:53:52;;;;;;;5.57;4.50;;;16.10;99.90;;;;;;4972817;28;20431;-67
2023/08/29 08:56:18;;;;;;;5.83;5.33;;;16.20;99.90;;;;;;4973049;28;20496;-66
2023/08/29 08:58:44;;;;;;;5.40;4.90;;;16.20;99.90;;;;;;4974615;28;20488;-69
2023/08/29 09:01:11;;;;;;;5.93;5.30;;;16.20;99.90;;;;;;4971665;28;20580;-67
2023/08/29 09:03:38;;;;;;;5.30;4.90;;;16.30;99.90;;;;;;4973408;28;20441;-66
2023/08/29 09:06:05;;;;;;;5.00;4.60;;;16.50;99.90;;;;;;4974154;28;20874;-66
2023/08/29 09:08:32;;;;;;;4.57;3.67;;;16.50;99.90;;;;;;4957814;28;20470;-66
2023/08/29 09:11:03;;;;;;;4.60;4.20;;;16.60;99.90;;;;;;4971334;28;20461;-71
2023/08/29 09:13:29;;;;;;;4.10;3.70;;;16.70;99.90;;;;;;4969371;28;20439;-67
2023/08/29 09:15:57;;;;;;;4.30;3.90;;;16.90;99.90;;;;;;4974519;28;20422;-67
2023/08/29 09:18:36;;;;;;;5.93;3.83;;;17.00;99.90;;;;;;4972373;28;20928;-67
2023/08/29 09:21:04;;;;;;;3.10;2.80;;;17.00;99.90;;;;;;4971050;28;20458;-71
2023/08/29 09:23:37;;;;;;;3.40;3.10;;;17.20;99.90;;;;;;4970525;28;20425;-70
2023/08/29 09:26:04;;;;;;;4.30;2.90;;;17.30;99.90;;;;;;4967443;28;20514;-67
2023/08/29 09:28:30;;;;;;;2.67;2.50;;;17.40;99.90;;;;;;4974156;28;20413;-67
2023/08/29 09:31:07;;;;;;;4.00;3.03;;;17.40;99.90;;;;;;4974641;28;20430;-68
2023/08/29 09:33:34;;;;;;;2.23;2.03;;;17.30;99.90;;;;;;4974173;28;20421;-68
2023/08/29 09:36:07;;;;;;;2.97;2.67;;;17.30;99.90;;;;;;4973809;28;20429;-70
2023/08/29 09:38:34;;;;;;;5.90;2.50;;;17.40;99.90;;;;;;4961731;28;20844;-70
2023/08/29 09:41:00;;;;;;;3.10;2.60;;;17.40;99.90;;;;;;4957313;28;20819;-69
2023/08/29 09:43:29;;;;;;;2.70;2.50;;;17.50;99.90;;;;;;4969107;28;20471;-70
2023/08/29 09:45:56;;;;;;;2.80;2.60;;;17.50;99.90;;;;;;4974816;28;20452;-70
2023/08/29 09:48:22;;;;;;;3.03;2.70;;;17.50;99.90;;;;;;4974623;28;20464;-70
2023/08/29 09:50:49;;;;;;;5.63;3.37;;;17.40;99.90;;;;;;4975359;28;20434;-69
2023/08/29 09:53:17;;;;;;;3.33;2.73;;;17.50;99.90;;;;;;4975639;28;20843;-69
2023/08/29 09:55:48;;;;;;;4.23;3.40;;;17.60;99.90;;;;;;4959211;28;20752;-69
2023/08/29 09:58:16;;;;;;;2.97;2.23;;;17.60;99.90;;;;;;4957959;28;20424;-70
2023/08/29 10:00:43;;;;;;;3.63;3.33;;;17.50;99.90;;;;;;4956411;28;20465;-70
2023/08/29 10:03:10;;;;;;;3.33;2.90;;;17.60;99.90;;;;;;4971407;28;20449;-70
2023/08/29 10:05:44;;;;;;;3.77;2.30;;;17.90;99.90;;;;;;4974049;28;20445;-67
2023/08/29 10:08:27;;;;;;;3.57;2.70;;;17.50;99.90;;;;;;4972121;28;20432;-67
2023/08/29 10:10:56;;;;;;;3.33;3.03;;;17.40;99.90;;;;;;4969322;28;20444;-67
2023/08/29 10:13:23;;;;;;;2.57;2.30;;;17.30;99.90;;;;;;4972211;28;20405;-67
2023/08/29 10:15:51;;;;;;;2.80;2.60;;;17.30;99.90;;;;;;4970981;28;20932;-67
2023/08/29 10:18:18;;;;;;;3.37;3.07;;;17.30;99.90;;;;;;4971254;28;20445;-67
2023/08/29 10:20:45;;;;;;;2.97;2.77;;;17.10;99.90;;;;;;4973597;28;20438;-67
2023/08/29 10:23:13;;;;;;;3.37;3.07;;;17.20;99.90;;;;;;4971611;28;20445;-67
2023/08/29 10:25:39;;;;;;;4.17;3.57;;;17.20;99.90;;;;;;4967305;28;20461;-66
2023/08/29 10:28:07;;;;;;;3.70;3.40;;;17.10;99.90;;;;;;4973383;28;20560;-67
2023/08/29 10:30:34;;;;;;;3.77;3.20;;;17.00;99.90;;;;;;4973392;28;20435;-67
2023/08/29 10:33:01;;;;;;;3.70;3.13;;;17.10;99.90;;;;;;4959520;28;20463;-67
2023/08/29 10:35:31;;;;;;;3.13;2.93;;;17.20;99.90;;;;;;4960274;28;20959;-70
2023/08/29 10:38:00;;;;;;;3.83;2.90;;;17.30;99.90;;;;;;4965780;28;20508;-70
2023/08/29 10:40:35;;;;;;;3.03;2.80;;;17.20;99.90;;;;;;4972912;28;20457;-68
2023/08/29 10:43:02;;;;;;;3.83;3.53;;;17.20;99.90;;;;;;4973111;28;20403;-69
2023/08/29 10:45:48;;;;;;;3.53;3.33;;;17.30;99.90;;;;;;4972911;28;20416;-69
2023/08/29 10:48:17;;;;;;;3.50;3.30;;;17.40;99.90;;;;;;4969198;28;20441;-69
2023/08/29 10:51:12;;;;;;;4.90;4.40;;;17.50;99.90;;;;;;4972531;28;20430;-69
2023/08/29 10:53:38;;;;;;;4.07;3.77;;;17.70;99.90;;;;;;4968672;28;20422;-69
2023/08/29 10:56:07;;;;;;;4.60;4.20;;;17.50;99.90;;;;;;4972811;28;20418;-69
2023/08/29 10:58:38;;;;;;;4.20;3.83;;;17.60;99.90;;;;;;4972505;28;20817;-69
2023/08/29 11:01:05;;;;;;;5.10;3.80;;;17.70;99.90;;;;;;4972573;28;20794;-69
2023/08/29 11:03:50;;;;;;;4.00;3.63;;;17.90;99.90;;;;;;4972339;28;20470;-69
2023/08/29 11:06:20;;;;;;;4.47;4.07;;;17.90;99.90;;;;;;4960581;28;20465;-69
2023/08/29 11:08:46;;;;;;;3.97;3.63;;;17.90;99.90;;;;;;4961947;28;20430;-69
2023/08/29 11:11:18;;;;;;;5.03;3.90;;;17.90;99.90;;;;;;4972684;28;20487;-69
2023/08/29 11:14:04;;;;;;;4.07;3.77;;;17.80;99.90;;;;;;4972199;28;20460;-69
2023/08/29 11:16:34;;;;;;;8.83;4.63;;;17.90;99.90;;;;;;4972180;28;20469;-69
2023/08/29 11:19:04;;;;;;;3.47;3.27;;;18.00;99.90;;;;;;4972246;28;20414;-69
2023/08/29 11:21:33;;;;;;;4.47;4.17;;;18.00;99.90;;;;;;4972098;28;20745;-69
2023/08/29 11:23:59;;;;;;;5.00;4.27;;;18.10;99.90;;;;;;4962738;28;20429;-69
2023/08/29 11:26:25;;;;;;;4.70;3.70;;;18.30;99.90;;;;;;4971949;28;20561;-68
2023/08/29 11:28:52;;;;;;;3.83;3.40;;;18.20;99.90;;;;;;4971380;28;20202;-69
2023/08/29 11:31:18;;;;;;;4.33;3.93;;;18.20;99.90;;;;;;4967799;28;20489;-70
2023/08/29 11:33:48;;;;;;;3.90;3.60;;;18.50;99.90;;;;;;4971710;28;20189;-70
2023/08/29 11:36:15;;;;;;;3.90;3.60;;;18.80;99.90;;;;;;4971934;28;20915;-69
2023/08/29 11:38:43;;;;;;;3.30;3.03;;;18.70;99.90;;;;;;4990406;28;20408;-69
2023/08/29 11:41:10;;;;;;;4.17;3.87;;;18.90;99.90;;;;;;4968436;28;20470;-69
2023/08/29 11:43:37;;;;;;;5.37;4.87;;;19.10;99.90;;;;;;4959082;28;20848;-69
2023/08/29 11:46:03;;;;;;;4.70;4.40;;;18.70;99.90;;;;;;4955135;28;20883;-69
2023/08/29 11:48:31;;;;;;;4.10;3.80;;;18.60;99.90;;;;;;4955792;28;20412;-69
2023/08/29 11:51:15;;;;;;;5.93;4.60;;;18.60;99.90;;;;;;4969993;28;20434;-69
2023/08/29 11:53:41;;;;;;;5.40;3.97;;;18.80;99.90;;;;;;4969976;28;20405;-69
2023/08/29 11:56:10;;;;;;;4.90;4.50;;;18.90;99.90;;;;;;4969990;28;20416;-69
2023/08/29 11:58:37;;;;;;;5.80;4.80;;;18.90;99.90;;;;;;4954564;28;20541;-70
2023/08/29 12:01:03;;;;;;;5.13;4.73;;;18.80;99.90;;;;;;4953984;28;20812;-69
2023/08/29 12:03:33;;;;;;;4.93;4.53;;;18.80;99.90;;;;;;4969906;28;20408;-70
2023/08/29 12:05:59;;;;;;;5.50;5.00;;;18.60;99.90;;;;;;4969777;28;20871;-69
2023/08/29 12:08:42;;;;;;;4.60;4.20;;;18.80;99.90;;;;;;4968532;28;20410;-70
2023/08/29 12:11:09;;;;;;;4.87;4.47;;;18.80;99.90;;;;;;4964519;28;20202;-69
2023/08/29 12:14:05;;;;;;;5.37;4.93;;;18.60;99.90;;;;;;4955120;28;20902;-69
2023/08/29 12:16:31;;;;;;;4.93;4.53;;;18.70;99.90;;;;;;4951773;28;21067;-69
2023/08/29 12:19:16;;;;;;;5.33;4.83;;;18.60;99.90;;;;;;4951880;28;20754;-69
2023/08/29 12:21:55;;;;;;;5.80;5.30;;;18.50;99.90;;;;;;4961366;28;20438;-69
2023/08/29 12:24:23;;;;;;;5.07;4.67;;;18.60;99.90;;;;;;4962067;28;20424;-70
2023/08/29 12:26:52;;;;;;;5.50;5.00;;;18.80;99.90;;;;;;4965884;28;20490;-71
2023/08/29 12:29:20;;;;;;;5.07;4.67;;;18.60;99.90;;;;;;4964292;28;20940;-73
2023/08/29 12:31:51;;;;;;;5.20;4.80;;;18.50;99.90;;;;;;4963981;28;20431;-72
2023/08/29 12:34:27;;;;;;;5.13;4.70;;;18.30;99.90;;;;;;4964186;28;20407;-71
2023/08/29 12:36:56;;;;;;;4.40;4.00;;;18.50;99.90;;;;;;4970141;28;20423;-71
2023/08/29 12:39:25;;;;;;;4.83;4.43;;;18.50;99.90;;;;;;4954168;28;20852;-70
2023/08/29 12:41:51;;;;;;;7.13;5.00;;;18.60;99.90;;;;;;4959068;28;20852;-68
2023/08/29 12:44:17;;;;;;;4.87;4.57;;;18.60;99.90;;;;;;4951325;28;20472;-69
2023/08/29 12:46:47;;;;;;;5.20;4.70;;;18.70;99.90;;;;;;4959231;28;20213;-69
2023/08/29 12:49:20;;;;;;;4.83;4.43;;;18.80;99.90;;;;;;4961987;28;20574;-69